Time;durP1;ratioP1;P1;durP2;ratioP2;P2;SDS_P1;SDS_P2;PMS_P1;PMS_P2;Temp;Humidity;BMP_temperature;BMP_pressure;BME280_temperature;BME280_humidity;BME280_pressure;Samples;Min_cycle;Max_cycle;Signal;HPM_P1;HPM_P2
2023/03/24 00:02:12;;;;;;;14.77;4.22;;;9.70;99.90;;;;;;5016185;28;20060;-62
2023/03/24 00:04:41;;;;;;;10.10;2.45;;;9.70;99.90;;;;;;5016108;28;20057;-61
2023/03/24 00:07:13;;;;;;;9.75;1.52;;;9.60;99.90;;;;;;5021372;28;20042;-61
2023/03/24 00:09:41;;;;;;;11.85;1.95;;;9.60;99.90;;;;;;5022843;28;20046;-60
2023/03/24 00:12:17;;;;;;;6.28;1.58;;;9.60;99.90;;;;;;5020456;28;20306;-60
2023/03/24 00:14:47;;;;;;;10.98;2.22;;;9.60;99.90;;;;;;5011865;28;20053;-60
2023/03/24 00:17:16;;;;;;;13.95;2.28;;;9.60;99.90;;;;;;5017564;28;20048;-62
2023/03/24 00:19:44;;;;;;;24.55;3.58;;;9.60;99.90;;;;;;5025363;28;20487;-60
2023/03/24 00:22:13;;;;;;;11.50;2.13;;;9.60;99.90;;;;;;5021515;28;20125;-60
2023/03/24 00:24:40;;;;;;;11.95;3.08;;;9.60;99.90;;;;;;5011546;28;20099;-60
2023/03/24 00:27:07;;;;;;;20.58;2.35;;;9.60;99.90;;;;;;5014754;28;20133;-60
2023/03/24 00:29:35;;;;;;;11.45;3.58;;;9.60;99.90;;;;;;5024524;28;20509;-60
2023/03/24 00:32:01;;;;;;;14.90;4.95;;;9.70;99.90;;;;;;5013304;28;20088;-59
2023/03/24 00:34:28;;;;;;;19.02;2.90;;;9.60;99.90;;;;;;5025916;28;20069;-60
2023/03/24 00:36:55;;;;;;;12.43;2.35;;;9.70;99.90;;;;;;5022157;28;20096;-59
2023/03/24 00:39:22;;;;;;;16.98;2.92;;;9.70;99.90;;;;;;4995105;28;20042;-60
2023/03/24 00:41:48;;;;;;;16.95;4.55;;;9.70;99.90;;;;;;4997175;28;20050;-60
2023/03/24 00:44:18;;;;;;;11.88;2.60;;;9.70;99.90;;;;;;5022835;28;20509;-60
2023/03/24 00:46:54;;;;;;;30.30;4.10;;;9.70;99.90;;;;;;5017448;28;20060;-60
2023/03/24 00:49:41;;;;;;;14.95;3.03;;;9.70;99.90;;;;;;5013305;28;20648;-60
2023/03/24 00:52:12;;;;;;;22.77;2.85;;;9.70;99.90;;;;;;5019904;28;20048;-60
2023/03/24 00:54:39;;;;;;;19.63;2.90;;;9.70;99.90;;;;;;5011945;28;20056;-60
2023/03/24 00:57:11;;;;;;;16.15;3.83;;;9.60;99.90;;;;;;5015817;28;20128;-61
2023/03/24 00:59:41;;;;;;;26.92;5.35;;;9.60;99.90;;;;;;5013326;28;20045;-59
2023/03/24 01:02:10;;;;;;;16.98;2.67;;;9.60;99.90;;;;;;5015341;28;20131;-60
2023/03/24 01:04:38;;;;;;;12.65;2.28;;;9.60;99.90;;;;;;5020286;28;20049;-60
2023/03/24 01:07:06;;;;;;;24.10;3.42;;;9.60;99.90;;;;;;5019316;28;20108;-59
2023/03/24 01:09:35;;;;;;;21.52;4.00;;;9.50;99.90;;;;;;5018556;28;20115;-60
2023/03/24 01:12:05;;;;;;;27.23;2.78;;;9.60;99.90;;;;;;5021124;28;20056;-59
2023/03/24 01:14:32;;;;;;;22.90;4.50;;;9.60;99.90;;;;;;5016047;28;20052;-58
2023/03/24 01:16:59;;;;;;;19.20;2.72;;;9.60;99.90;;;;;;5020052;28;20121;-60
2023/03/24 01:19:27;;;;;;;14.88;2.78;;;9.60;99.90;;;;;;5020256;28;20046;-59
2023/03/24 01:21:54;;;;;;;18.35;2.97;;;9.60;99.90;;;;;;5012215;28;20050;-62
2023/03/24 01:24:24;;;;;;;20.58;2.63;;;9.60;99.90;;;;;;5021840;28;20042;-60
2023/03/24 01:26:51;;;;;;;18.27;3.20;;;9.60;99.90;;;;;;5013309;28;20081;-60
2023/03/24 01:29:17;;;;;;;14.10;3.05;;;9.60;99.90;;;;;;5017817;28;20061;-59
2023/03/24 01:31:44;;;;;;;22.88;3.55;;;9.70;99.90;;;;;;5009799;28;20120;-63
2023/03/24 01:34:11;;;;;;;24.75;3.30;;;9.70;99.90;;;;;;5024603;28;20094;-61
2023/03/24 01:36:38;;;;;;;27.33;4.05;;;9.70;99.90;;;;;;5010530;28;20060;-59
2023/03/24 01:39:05;;;;;;;17.02;2.63;;;9.70;99.90;;;;;;5014246;28;20144;-62
2023/03/24 01:41:35;;;;;;;24.17;2.88;;;9.80;99.90;;;;;;5024226;28;20046;-59
2023/03/24 01:44:24;;;;;;;17.33;3.13;;;9.70;99.90;;;;;;5015353;28;20138;-59
2023/03/24 01:46:52;;;;;;;22.15;3.95;;;9.70;99.90;;;;;;4995439;28;20488;-60
2023/03/24 01:49:19;;;;;;;22.05;3.28;;;9.70;99.90;;;;;;5014156;28;20561;-60
2023/03/24 01:51:47;;;;;;;10.95;2.97;;;9.60;99.90;;;;;;5023400;28;20041;-58
2023/03/24 01:54:26;;;;;;;20.38;3.42;;;9.60;99.90;;;;;;4996043;28;20056;-59
2023/03/24 01:57:00;;;;;;;12.35;2.42;;;9.60;99.90;;;;;;5007214;28;20079;-58
2023/03/24 01:59:30;;;;;;;20.23;4.47;;;9.60;99.90;;;;;;4998713;28;20037;-59
2023/03/24 02:02:02;;;;;;;15.45;2.60;;;9.60;99.90;;;;;;4990720;28;20053;-59
2023/03/24 02:04:37;;;;;;;24.33;3.75;;;9.50;99.90;;;;;;5020475;28;20133;-59
2023/03/24 02:07:35;;;;;;;19.92;3.22;;;9.50;99.90;;;;;;4661283;28;10000150;-60
2023/03/24 02:10:08;;;;;;;27.27;3.85;;;9.50;99.90;;;;;;4997981;28;20068;-59
2023/03/24 02:12:35;;;;;;;16.38;2.72;;;9.40;99.90;;;;;;5006298;28;20085;-60
2023/03/24 02:15:03;;;;;;;24.17;3.50;;;9.40;99.90;;;;;;5002799;28;20136;-60
2023/03/24 02:17:57;;;;;;;20.95;3.30;;;9.40;99.90;;;;;;5027325;28;20556;-60
2023/03/24 02:20:54;;;;;;;16.02;3.05;;;9.40;99.90;;;;;;5020886;28;20136;-60
2023/03/24 02:23:24;;;;;;;19.77;3.63;;;9.30;99.90;;;;;;4994626;28;20557;-60
2023/03/24 02:26:05;;;;;;;21.13;4.15;;;9.30;99.90;;;;;;5014697;28;20050;-61
2023/03/24 02:28:51;;;;;;;18.25;3.35;;;9.30;99.90;;;;;;4997339;28;20045;-61
2023/03/24 02:31:43;;;;;;;21.42;3.97;;;9.30;99.90;;;;;;4982668;28;20077;-60
2023/03/24 02:34:19;;;;;;;17.38;2.88;;;9.20;99.90;;;;;;5010075;28;20046;-59
2023/03/24 02:37:09;;;;;;;22.77;2.58;;;9.20;99.90;;;;;;5019057;28;20152;-60
2023/03/24 02:39:48;;;;;;;21.92;2.72;;;9.20;99.90;;;;;;5005553;28;20058;-59
2023/03/24 02:42:30;;;;;;;21.63;2.63;;;9.10;99.90;;;;;;5010916;28;20049;-60
2023/03/24 02:45:23;;;;;;;16.58;2.55;;;9.10;99.90;;;;;;4993005;28;20045;-60
2023/03/24 02:48:00;;;;;;;10.05;2.45;;;9.10;99.90;;;;;;5020943;28;20050;-60
2023/03/24 02:50:51;;;;;;;16.98;4.00;;;9.00;99.90;;;;;;5005058;28;20041;-60
2023/03/24 02:53:34;;;;;;;18.67;2.90;;;9.00;99.90;;;;;;5015691;28;20500;-59
2023/03/24 02:56:30;;;;;;;28.30;5.43;;;9.00;99.90;;;;;;4989879;28;20045;-59
2023/03/24 02:59:08;;;;;;;17.40;2.85;;;8.90;99.90;;;;;;5015146;28;20060;-59
2023/03/24 03:01:42;;;;;;;19.70;3.60;;;8.90;99.90;;;;;;4996760;28;20046;-59
2023/03/24 03:04:17;;;;;;;21.88;3.63;;;8.90;99.90;;;;;;5008662;28;20244;-59
2023/03/24 03:06:47;;;;;;;22.98;4.75;;;8.90;99.90;;;;;;4999287;28;20054;-60
2023/03/24 03:09:15;;;;;;;19.67;4.25;;;8.90;99.90;;;;;;5008450;28;20056;-59
2023/03/24 03:11:44;;;;;;;23.65;4.63;;;8.90;99.90;;;;;;4983162;28;20046;-60
2023/03/24 03:14:13;;;;;;;25.23;3.53;;;8.90;99.90;;;;;;5006738;28;20045;-60
2023/03/24 03:16:52;;;;;;;13.57;2.88;;;8.80;99.90;;;;;;5004390;28;20419;-60
2023/03/24 03:19:31;;;;;;;23.27;3.30;;;8.80;99.90;;;;;;5007278;28;20052;-60
2023/03/24 03:21:57;;;;;;;33.03;6.45;;;8.80;99.90;;;;;;4992291;28;20605;-59
2023/03/24 03:24:26;;;;;;;25.05;2.88;;;8.80;99.90;;;;;;4983644;28;20065;-60
2023/03/24 03:26:59;;;;;;;27.73;4.95;;;8.80;99.90;;;;;;4997818;28;20051;-59
2023/03/24 03:29:27;;;;;;;28.70;3.70;;;8.80;99.90;;;;;;4991656;28;20050;-60
2023/03/24 03:32:06;;;;;;;25.02;3.30;;;8.70;99.90;;;;;;4975077;28;20047;-59
2023/03/24 03:34:40;;;;;;;31.70;4.32;;;8.70;99.90;;;;;;4978775;28;20082;-59
2023/03/24 03:37:13;;;;;;;20.55;3.67;;;8.70;99.90;;;;;;4978240;28;20080;-60
2023/03/24 03:39:44;;;;;;;25.55;4.70;;;8.70;99.90;;;;;;4982011;28;20096;-61
2023/03/24 03:42:11;;;;;;;46.28;6.70;;;8.60;99.90;;;;;;4982432;28;20057;-60
2023/03/24 03:44:37;;;;;;;25.05;4.53;;;8.60;99.90;;;;;;4978814;28;20057;-60
2023/03/24 03:47:04;;;;;;;24.42;4.03;;;8.60;99.90;;;;;;4985149;28;20045;-60
2023/03/24 03:49:31;;;;;;;26.48;4.72;;;8.60;99.90;;;;;;4979808;28;20135;-60
2023/03/24 03:51:58;;;;;;;33.60;4.10;;;8.60;99.90;;;;;;4985938;28;20042;-59
2023/03/24 03:54:24;;;;;;;25.98;4.07;;;8.60;99.90;;;;;;4980543;28;20142;-60
2023/03/24 03:56:52;;;;;;;30.42;4.80;;;8.60;99.90;;;;;;4972119;28;20043;-59
2023/03/24 03:59:32;;;;;;;27.88;4.22;;;8.50;99.90;;;;;;4976196;28;20051;-59
2023/03/24 04:02:18;;;;;;;28.58;4.93;;;8.50;99.90;;;;;;4986042;28;20142;-59
2023/03/24 04:04:45;;;;;;;22.80;3.25;;;8.50;99.90;;;;;;4978940;28;20058;-58
2023/03/24 04:07:48;;;;;;;30.30;5.35;;;8.50;99.90;;;;;;4982324;28;20047;-59
2023/03/24 04:10:29;;;;;;;37.20;6.28;;;8.50;99.90;;;;;;4982718;28;20048;-61
2023/03/24 04:13:30;;;;;;;28.73;4.60;;;8.50;99.90;;;;;;4983945;28;20043;-61
2023/03/24 04:16:27;;;;;;;27.63;4.05;;;8.50;99.90;;;;;;4981468;28;20069;-60
2023/03/24 04:19:19;;;;;;;24.98;3.55;;;8.50;99.90;;;;;;4985774;28;20628;-58
2023/03/24 04:22:18;;;;;;;36.83;5.30;;;8.50;99.90;;;;;;4989227;28;20154;-58
2023/03/24 04:24:55;;;;;;;19.25;3.60;;;8.40;99.90;;;;;;4993017;28;20050;-58
2023/03/24 04:27:46;;;;;;;26.60;4.22;;;8.50;99.90;;;;;;4970352;28;20090;-58
2023/03/24 04:30:36;;;;;;;26.98;4.63;;;8.50;99.90;;;;;;4983735;28;20097;-59
2023/03/24 04:33:05;;;;;;;30.27;4.95;;;8.50;99.90;;;;;;4969416;28;20479;-60
2023/03/24 04:35:34;;;;;;;22.77;4.18;;;8.50;99.90;;;;;;4980592;28;20046;-58
2023/03/24 04:38:03;;;;;;;28.17;4.57;;;8.50;99.90;;;;;;4971459;28;20050;-59
2023/03/24 04:40:31;;;;;;;23.45;3.70;;;8.50;99.90;;;;;;4980844;28;20054;-60
2023/03/24 04:43:00;;;;;;;31.95;4.45;;;8.50;99.90;;;;;;4970492;28;20505;-60
2023/03/24 04:45:27;;;;;;;25.17;5.53;;;8.50;99.90;;;;;;4973227;28;20054;-59
2023/03/24 04:47:55;;;;;;;25.38;4.97;;;8.50;99.90;;;;;;4985097;28;20038;-59
2023/03/24 04:50:29;;;;;;;28.10;4.93;;;8.50;99.90;;;;;;4997539;28;20045;-60
2023/03/24 04:52:56;;;;;;;34.92;4.55;;;8.50;99.90;;;;;;4973331;28;20047;-59
2023/03/24 04:55:53;;;;;;;33.13;6.80;;;8.50;99.90;;;;;;4974048;28;20053;-59
2023/03/24 04:58:21;;;;;;;18.98;3.80;;;8.50;99.90;;;;;;4986209;28;20055;-61
2023/03/24 05:00:48;;;;;;;28.08;5.20;;;8.50;99.90;;;;;;4982662;28;20165;-61
2023/03/24 05:03:16;;;;;;;24.25;4.20;;;8.50;99.90;;;;;;4972931;28;20057;-59
2023/03/24 05:05:43;;;;;;;25.58;3.70;;;8.50;99.90;;;;;;4974065;28;20050;-60
2023/03/24 05:08:10;;;;;;;19.77;3.28;;;8.50;99.90;;;;;;4984552;28;20052;-60
2023/03/24 05:10:37;;;;;;;37.03;4.68;;;8.50;99.90;;;;;;4981280;28;20049;-61
2023/03/24 05:13:04;;;;;;;35.53;4.78;;;8.40;99.90;;;;;;4976033;28;20066;-61
2023/03/24 05:15:31;;;;;;;30.02;6.45;;;8.40;99.90;;;;;;4974952;28;20046;-60
2023/03/24 05:17:58;;;;;;;21.60;4.30;;;8.40;99.90;;;;;;4978953;28;20050;-60
2023/03/24 05:20:25;;;;;;;26.48;6.05;;;8.40;99.90;;;;;;4992938;28;20136;-61
2023/03/24 05:22:52;;;;;;;30.92;4.55;;;8.40;99.90;;;;;;5019250;28;20086;-61
2023/03/24 05:25:19;;;;;;;34.75;6.10;;;8.40;99.90;;;;;;4995042;28;20055;-60
2023/03/24 05:27:46;;;;;;;27.42;4.15;;;8.40;99.90;;;;;;5017253;28;20046;-60
2023/03/24 05:30:13;;;;;;;24.23;4.30;;;8.40;99.90;;;;;;5023291;28;20069;-61
2023/03/24 05:32:40;;;;;;;24.42;4.32;;;8.40;99.90;;;;;;5020162;28;20056;-60
2023/03/24 05:35:07;;;;;;;21.98;3.47;;;8.40;99.90;;;;;;4994544;28;20042;-60
2023/03/24 05:37:34;;;;;;;28.17;4.97;;;8.40;99.90;;;;;;5014568;28;20537;-60
2023/03/24 05:40:00;;;;;;;27.23;4.22;;;8.40;99.90;;;;;;5023477;28;20049;-60
2023/03/24 05:42:27;;;;;;;35.05;5.90;;;8.40;99.90;;;;;;4997059;28;20056;-60
2023/03/24 05:44:54;;;;;;;37.20;6.63;;;8.40;99.90;;;;;;5025376;28;20160;-60
2023/03/24 05:47:21;;;;;;;24.45;3.97;;;8.40;99.90;;;;;;5013999;28;20046;-59
2023/03/24 05:49:47;;;;;;;31.25;4.57;;;8.40;99.90;;;;;;5023029;28;20505;-61
2023/03/24 05:52:15;;;;;;;26.38;5.32;;;8.40;99.90;;;;;;5021010;28;20049;-61
2023/03/24 05:54:42;;;;;;;26.70;4.07;;;8.40;99.90;;;;;;5027487;28;20060;-61
2023/03/24 05:57:15;;;;;;;21.83;5.90;;;8.40;99.90;;;;;;5015134;28;20088;-61
2023/03/24 05:59:42;;;;;;;26.53;3.77;;;8.40;99.90;;;;;;5023914;28;20057;-60
2023/03/24 06:02:09;;;;;;;29.38;4.00;;;8.40;99.90;;;;;;5023604;28;20080;-61
2023/03/24 06:04:36;;;;;;;26.13;4.80;;;8.40;99.90;;;;;;5020510;28;20053;-60
2023/03/24 06:07:03;;;;;;;27.95;4.88;;;8.40;99.90;;;;;;5019459;28;20037;-59
2023/03/24 06:09:37;;;;;;;35.25;6.35;;;8.40;99.90;;;;;;5021650;28;20140;-59
2023/03/24 06:12:06;;;;;;;29.95;4.88;;;8.40;99.90;;;;;;4992884;28;20038;-59
2023/03/24 06:14:33;;;;;;;33.05;4.82;;;8.40;99.90;;;;;;5022509;28;20481;-59
2023/03/24 06:17:00;;;;;;;34.05;5.03;;;8.40;99.90;;;;;;5020388;28;20065;-57
2023/03/24 06:19:29;;;;;;;26.73;4.88;;;8.40;99.90;;;;;;5018014;28;20037;-59
2023/03/24 06:22:01;;;;;;;26.73;3.97;;;8.40;99.90;;;;;;5026831;28;20064;-60
2023/03/24 06:24:29;;;;;;;31.95;4.70;;;8.40;99.90;;;;;;5022138;28;20065;-60
2023/03/24 06:27:01;;;;;;;25.92;5.45;;;8.40;99.90;;;;;;5013921;28;20722;-60
2023/03/24 06:29:29;;;;;;;35.47;4.63;;;8.40;99.90;;;;;;5009843;28;20049;-60
2023/03/24 06:31:56;;;;;;;26.15;4.05;;;8.40;99.90;;;;;;5028023;28;20049;-59
2023/03/24 06:34:24;;;;;;;29.08;3.88;;;8.50;99.90;;;;;;5006934;28;20053;-59
2023/03/24 06:36:51;;;;;;;21.35;4.40;;;8.50;99.90;;;;;;5013577;28;20497;-59
2023/03/24 06:39:18;;;;;;;36.67;5.20;;;8.50;99.90;;;;;;5016020;28;20050;-59
2023/03/24 06:41:44;;;;;;;33.22;6.70;;;8.50;99.90;;;;;;5028820;28;20046;-59
2023/03/24 06:44:11;;;;;;;21.85;4.53;;;8.50;99.90;;;;;;5023774;28;20049;-60
2023/03/24 06:46:39;;;;;;;28.77;3.28;;;8.60;99.90;;;;;;4677770;28;10000885;-61
2023/03/24 06:49:06;;;;;;;34.70;6.93;;;8.60;99.90;;;;;;5013910;28;20054;-59
2023/03/24 06:51:33;;;;;;;30.35;5.00;;;8.60;99.90;;;;;;5022503;28;20056;-60
2023/03/24 06:54:00;;;;;;;32.90;5.63;;;8.70;99.90;;;;;;5001852;28;20053;-59
2023/03/24 06:56:27;;;;;;;27.20;4.93;;;8.70;99.90;;;;;;5014651;28;20060;-59
2023/03/24 06:58:54;;;;;;;21.30;4.20;;;8.80;99.90;;;;;;4997744;28;20095;-60
2023/03/24 07:01:21;;;;;;;33.80;4.18;;;8.80;99.90;;;;;;5000493;28;20125;-60
2023/03/24 07:03:48;;;;;;;24.20;4.55;;;8.90;99.90;;;;;;5020021;28;20788;-60
2023/03/24 07:06:15;;;;;;;29.13;4.57;;;8.90;99.90;;;;;;5018626;28;20073;-59
2023/03/24 07:08:43;;;;;;;33.38;4.47;;;8.90;99.90;;;;;;5014022;28;20527;-59
2023/03/24 07:11:10;;;;;;;25.52;4.03;;;9.00;99.90;;;;;;5018021;28;20138;-61
2023/03/24 07:13:37;;;;;;;31.08;4.10;;;9.00;99.90;;;;;;5010324;28;20067;-60
2023/03/24 07:16:04;;;;;;;20.00;4.03;;;9.10;99.90;;;;;;4996945;28;20483;-60
2023/03/24 07:18:31;;;;;;;25.88;4.35;;;9.10;99.90;;;;;;5024314;28;20124;-61
2023/03/24 07:20:57;;;;;;;25.58;4.85;;;9.20;99.90;;;;;;5020226;28;20077;-59
2023/03/24 07:23:26;;;;;;;24.75;3.22;;;9.30;99.90;;;;;;5009601;28;20060;-60
2023/03/24 07:25:53;;;;;;;27.23;4.28;;;9.30;99.90;;;;;;4994971;28;20122;-60
2023/03/24 07:28:23;;;;;;;26.92;5.55;;;9.30;99.90;;;;;;5025127;28;20092;-59
2023/03/24 07:30:50;;;;;;;25.60;4.35;;;9.40;99.90;;;;;;5011133;28;20054;-57
2023/03/24 07:33:23;;;;;;;34.45;4.95;;;9.40;99.90;;;;;;5022254;28;20143;-60
2023/03/24 07:35:54;;;;;;;22.48;4.07;;;9.50;99.90;;;;;;5015129;28;20050;-56
2023/03/24 07:38:21;;;;;;;28.95;4.88;;;9.60;99.90;;;;;;5021818;28;20053;-58
2023/03/24 07:40:48;;;;;;;24.63;3.80;;;9.60;99.90;;;;;;5019917;28;20049;-58
2023/03/24 07:43:14;;;;;;;21.38;3.60;;;9.70;99.90;;;;;;5011435;28;20053;-58
2023/03/24 07:45:44;;;;;;;20.77;3.63;;;9.70;99.90;;;;;;5012958;28;20520;-57
2023/03/24 07:48:11;;;;;;;21.63;3.70;;;9.80;99.90;;;;;;5012989;28;20508;-57
2023/03/24 07:50:39;;;;;;;30.85;4.60;;;9.80;99.90;;;;;;5013170;28;20123;-59
2023/03/24 07:53:08;;;;;;;24.23;4.03;;;9.90;99.90;;;;;;4999163;28;20055;-60
2023/03/24 07:55:39;;;;;;;31.30;4.43;;;10.00;99.90;;;;;;5017883;28;20041;-60
2023/03/24 07:58:05;;;;;;;28.38;3.72;;;10.00;99.90;;;;;;5013946;28;20469;-60
2023/03/24 08:00:32;;;;;;;22.83;3.55;;;10.00;99.90;;;;;;5018584;28;20180;-60
2023/03/24 08:02:59;;;;;;;25.65;4.53;;;10.10;99.90;;;;;;5016460;28;20548;-60
2023/03/24 08:05:28;;;;;;;27.33;4.90;;;10.10;99.90;;;;;;5009622;28;20045;-59
2023/03/24 08:07:56;;;;;;;33.60;4.25;;;10.10;99.90;;;;;;5014263;28;20073;-59
2023/03/24 08:10:25;;;;;;;23.77;4.60;;;10.20;99.90;;;;;;5022522;28;20053;-61
2023/03/24 08:12:52;;;;;;;30.33;5.38;;;10.20;99.90;;;;;;5017835;28;20111;-59
2023/03/24 08:15:20;;;;;;;21.98;4.88;;;10.30;99.90;;;;;;5008221;28;20049;-58
2023/03/24 08:17:47;;;;;;;31.60;5.60;;;10.30;99.90;;;;;;5011114;28;20128;-60
2023/03/24 08:20:14;;;;;;;16.60;3.33;;;10.40;99.90;;;;;;5023077;28;20053;-63
2023/03/24 08:22:42;;;;;;;27.55;4.38;;;10.50;99.90;;;;;;5000112;28;20053;-60
2023/03/24 08:25:10;;;;;;;24.13;4.85;;;10.50;99.90;;;;;;5023166;28;20121;-60
2023/03/24 08:27:37;;;;;;;17.48;4.05;;;10.50;99.90;;;;;;5019546;28;20073;-60
2023/03/24 08:30:09;;;;;;;25.15;5.55;;;10.60;99.90;;;;;;5024700;28;20053;-60
2023/03/24 08:32:36;;;;;;;25.55;4.63;;;10.60;99.90;;;;;;4995006;28;20077;-59
2023/03/24 08:35:03;;;;;;;22.42;3.40;;;10.70;99.90;;;;;;5021304;28;20410;-59
2023/03/24 08:37:30;;;;;;;17.70;3.83;;;10.70;99.90;;;;;;5014425;28;20108;-60
2023/03/24 08:40:04;;;;;;;23.48;5.03;;;10.70;99.90;;;;;;5021823;28;20059;-59
2023/03/24 08:42:30;;;;;;;18.83;4.70;;;10.80;99.90;;;;;;5020048;28;20129;-60
2023/03/24 08:44:57;;;;;;;16.92;3.05;;;10.90;99.90;;;;;;5016721;28;20138;-60
2023/03/24 08:47:24;;;;;;;21.83;3.20;;;10.90;99.90;;;;;;5015365;28;20411;-59
2023/03/24 08:49:56;;;;;;;24.35;3.65;;;10.90;99.90;;;;;;5018249;28;20057;-59
2023/03/24 08:52:23;;;;;;;24.40;3.70;;;11.00;99.90;;;;;;5003911;28;20572;-60
2023/03/24 08:54:50;;;;;;;15.68;3.30;;;11.00;99.90;;;;;;5019432;28;20144;-60
2023/03/24 08:57:17;;;;;;;21.58;5.93;;;11.10;99.90;;;;;;4994653;28;20506;-60
2023/03/24 08:59:45;;;;;;;12.27;3.08;;;11.00;99.90;;;;;;5017033;28;20049;-60
2023/03/24 09:02:12;;;;;;;18.98;3.30;;;11.10;99.90;;;;;;5020406;28;20038;-59
2023/03/24 09:04:41;;;;;;;17.33;3.05;;;11.20;99.90;;;;;;5020364;28;20081;-60
2023/03/24 09:07:08;;;;;;;19.75;2.85;;;11.30;99.90;;;;;;5010814;28;20056;-59
2023/03/24 09:09:35;;;;;;;33.78;7.10;;;11.40;99.90;;;;;;5014560;28;20046;-61
2023/03/24 09:12:02;;;;;;;14.82;2.70;;;11.40;99.90;;;;;;5025096;28;20492;-59
2023/03/24 09:14:29;;;;;;;23.80;4.70;;;11.40;99.90;;;;;;5022996;28;20398;-60
2023/03/24 09:16:56;;;;;;;23.83;2.95;;;11.40;99.90;;;;;;5009962;28;20049;-60
2023/03/24 09:19:22;;;;;;;17.00;3.60;;;11.40;99.90;;;;;;5021690;28;20050;-61
2023/03/24 09:21:49;;;;;;;15.27;3.50;;;11.70;99.90;;;;;;5012049;28;20136;-60
2023/03/24 09:24:16;;;;;;;20.00;4.35;;;11.90;99.90;;;;;;5013520;28;20125;-59
2023/03/24 09:26:43;;;;;;;21.48;3.30;;;12.00;99.90;;;;;;5014842;28;20140;-60
2023/03/24 09:29:10;;;;;;;25.38;3.42;;;12.10;99.90;;;;;;5018059;28;20072;-60
2023/03/24 09:31:37;;;;;;;22.42;3.22;;;12.30;99.90;;;;;;5021486;28;20103;-60
2023/03/24 09:34:09;;;;;;;15.60;2.72;;;12.30;99.90;;;;;;5012456;28;20048;-63
2023/03/24 09:36:36;;;;;;;18.33;3.53;;;12.30;99.90;;;;;;5012870;28;20564;-61
2023/03/24 09:39:02;;;;;;;25.90;3.85;;;12.30;99.90;;;;;;4995951;28;20052;-59
2023/03/24 09:41:30;;;;;;;28.30;4.35;;;12.30;99.90;;;;;;5016748;28;20045;-59
2023/03/24 09:44:06;;;;;;;15.85;4.15;;;12.30;99.90;;;;;;5021343;28;20094;-60
2023/03/24 09:46:32;;;;;;;17.30;3.97;;;12.40;99.90;;;;;;5001163;28;20408;-60
2023/03/24 09:48:59;;;;;;;14.07;3.88;;;12.50;99.90;;;;;;5011567;28;20297;-59
2023/03/24 09:51:28;;;;;;;17.17;2.90;;;12.60;99.90;;;;;;4999286;28;20076;-59
2023/03/24 09:54:04;;;;;;;14.63;3.20;;;12.70;99.90;;;;;;5024164;28;20123;-59
2023/03/24 09:56:31;;;;;;;16.27;3.13;;;12.70;99.90;;;;;;5005196;28;20111;-59
2023/03/24 09:59:06;;;;;;;16.58;4.28;;;12.70;99.90;;;;;;4977066;28;20045;-59
2023/03/24 10:01:34;;;;;;;17.73;3.38;;;12.70;99.90;;;;;;5002446;28;20045;-59
2023/03/24 10:04:01;;;;;;;19.63;4.53;;;12.70;99.90;;;;;;4993057;28;20510;-59
2023/03/24 10:06:40;;;;;;;12.65;2.78;;;12.90;99.90;;;;;;5014302;28;20131;-60
2023/03/24 10:09:12;;;;;;;13.38;2.28;;;13.00;99.90;;;;;;5008164;28;20038;-60
2023/03/24 10:11:47;;;;;;;21.98;4.68;;;13.00;99.90;;;;;;5020948;28;20052;-61
2023/03/24 10:14:26;;;;;;;22.63;3.20;;;13.10;99.90;;;;;;4993194;28;20129;-60
2023/03/24 10:17:24;;;;;;;23.02;3.33;;;13.10;99.90;;;;;;5014311;28;20301;-60
2023/03/24 10:19:59;;;;;;;31.70;3.65;;;13.20;99.90;;;;;;4984775;28;20049;-60
2023/03/24 10:22:53;;;;;;;17.70;3.50;;;13.20;99.90;;;;;;5018589;28;20140;-60
2023/03/24 10:25:23;;;;;;;19.55;3.20;;;13.30;99.90;;;;;;5012091;28;20140;-60
2023/03/24 10:28:01;;;;;;;10.02;2.75;;;13.40;99.90;;;;;;5016412;28;20052;-60
2023/03/24 10:30:38;;;;;;;10.20;2.60;;;13.20;99.90;;;;;;5004204;28;20366;-60
2023/03/24 10:33:05;;;;;;;18.38;2.85;;;12.90;99.90;;;;;;5001417;28;20133;-59
2023/03/24 10:35:36;;;;;;;19.05;4.82;;;12.30;99.90;;;;;;4665373;28;10001125;-60
2023/03/24 10:38:10;;;;;;;17.75;3.63;;;11.60;99.90;;;;;;4998251;28;20508;-60
2023/03/24 10:40:38;;;;;;;16.38;2.58;;;11.10;99.90;;;;;;4992245;28;20038;-60
2023/03/24 10:43:05;;;;;;;11.25;2.65;;;10.70;99.90;;;;;;4998562;28;20132;-61
2023/03/24 10:45:37;;;;;;;12.23;1.77;;;10.50;99.90;;;;;;4991324;28;20045;-59
2023/03/24 10:48:04;;;;;;;16.35;2.38;;;10.30;99.90;;;;;;5018455;28;20305;-61
2023/03/24 10:50:32;;;;;;;10.70;1.98;;;10.30;99.90;;;;;;5027950;28;20050;-61
2023/03/24 10:52:59;;;;;;;18.88;2.58;;;10.30;99.90;;;;;;5024867;28;20132;-60
2023/03/24 10:55:30;;;;;;;12.70;1.90;;;10.40;99.90;;;;;;5014138;28;20046;-61
2023/03/24 10:57:57;;;;;;;11.35;2.95;;;10.50;99.90;;;;;;4998908;28;20604;-61
2023/03/24 11:00:28;;;;;;;11.40;1.85;;;10.60;99.90;;;;;;5011609;28;20515;-60
2023/03/24 11:02:58;;;;;;;18.00;2.53;;;10.70;99.90;;;;;;5024549;28;20286;-59
2023/03/24 11:05:32;;;;;;;18.13;2.22;;;10.80;99.90;;;;;;4996089;28;20054;-60
2023/03/24 11:08:16;;;;;;;15.15;4.03;;;11.00;99.90;;;;;;4999524;28;20070;-60
2023/03/24 11:10:43;;;;;;;14.85;4.22;;;11.20;99.90;;;;;;5011803;28;20108;-58
2023/03/24 11:13:30;;;;;;;9.73;2.10;;;11.40;99.90;;;;;;4990188;28;20065;-59
2023/03/24 11:16:10;;;;;;;7.70;1.85;;;11.60;99.90;;;;;;5011943;28;20144;-60
2023/03/24 11:18:37;;;;;;;10.52;2.58;;;11.70;99.90;;;;;;5015392;28;20445;-60
2023/03/24 11:21:05;;;;;;;19.70;2.40;;;11.90;99.90;;;;;;5027907;28;20097;-59
2023/03/24 11:23:44;;;;;;;19.65;2.15;;;12.10;99.90;;;;;;4991437;28;20448;-59
2023/03/24 11:26:11;;;;;;;12.63;2.60;;;12.30;99.90;;;;;;4995542;28;20499;-59
2023/03/24 11:28:45;;;;;;;18.38;3.40;;;12.40;99.90;;;;;;5016394;28;20282;-59
2023/03/24 11:31:17;;;;;;;25.13;3.35;;;12.40;99.90;;;;;;5009058;28;20501;-60
2023/03/24 11:33:49;;;;;;;16.70;3.13;;;12.40;99.90;;;;;;5023171;28;20509;-59
2023/03/24 11:36:33;;;;;;;11.77;1.90;;;12.60;99.90;;;;;;4997166;28;20111;-59
2023/03/24 11:39:02;;;;;;;17.45;2.30;;;12.80;99.90;;;;;;5016623;28;20054;-62
2023/03/24 11:41:29;;;;;;;16.48;2.63;;;12.80;99.90;;;;;;5025850;28;20452;-61
2023/03/24 11:44:20;;;;;;;13.98;2.55;;;12.80;99.90;;;;;;5005887;28;20085;-61
2023/03/24 11:46:53;;;;;;;6.57;1.30;;;12.80;99.90;;;;;;5012542;28;20041;-59
2023/03/24 11:49:23;;;;;;;9.15;1.80;;;12.90;99.90;;;;;;4998454;28;20064;-59
2023/03/24 11:51:51;;;;;;;8.75;1.83;;;13.00;99.90;;;;;;5007942;28;20077;-60
2023/03/24 11:54:20;;;;;;;11.50;1.58;;;13.00;99.90;;;;;;4989505;28;20041;-60
2023/03/24 11:56:54;;;;;;;10.27;2.25;;;13.00;99.90;;;;;;5014611;28;20068;-60
2023/03/24 11:59:38;;;;;;;13.50;2.45;;;13.10;99.90;;;;;;5005212;28;20048;-60
2023/03/24 12:02:13;;;;;;;8.35;1.52;;;13.30;99.90;;;;;;4996787;28;20050;-60
2023/03/24 12:05:14;;;;;;;7.18;1.63;;;13.50;99.90;;;;;;5015597;28;20096;-60
2023/03/24 12:07:50;;;;;;;14.18;2.00;;;13.60;99.90;;;;;;4995452;28;20077;-61
2023/03/24 12:10:47;;;;;;;12.05;1.95;;;13.70;99.90;;;;;;5014313;28;20049;-59
2023/03/24 12:13:39;;;;;;;10.60;1.88;;;13.80;99.90;;;;;;5012245;28;20180;-61
2023/03/24 12:16:31;;;;;;;11.07;1.95;;;13.80;99.90;;;;;;5002294;28;20046;-60
2023/03/24 12:19:43;;;;;;;21.45;4.07;;;13.60;99.90;;;;;;5024599;28;20512;-60
2023/03/24 12:22:21;;;;;;;10.73;1.70;;;13.50;99.90;;;;;;5026971;28;20049;-58
2023/03/24 12:25:07;;;;;;;22.42;3.00;;;13.40;99.90;;;;;;5003656;28;20046;-61
2023/03/24 12:27:59;;;;;;;20.90;5.22;;;13.40;99.90;;;;;;4998099;28;20053;-59
2023/03/24 12:30:48;;;;;;;19.27;2.15;;;13.40;99.90;;;;;;5022360;28;20045;-61
2023/03/24 12:33:37;;;;;;;10.20;1.88;;;13.40;99.90;;;;;;4997815;28;20054;-61
2023/03/24 12:36:12;;;;;;;13.30;2.30;;;13.50;99.90;;;;;;5022831;28;20060;-61
2023/03/24 12:39:00;;;;;;;19.73;3.17;;;13.60;99.90;;;;;;5009312;28;20069;-61
2023/03/24 12:41:41;;;;;;;10.88;1.75;;;13.80;99.90;;;;;;4998043;28;20470;-60
2023/03/24 12:44:39;;;;;;;11.27;2.63;;;14.20;99.90;;;;;;4993859;28;20060;-60
2023/03/24 12:47:29;;;;;;;16.38;3.00;;;14.20;99.90;;;;;;5016240;28;20100;-59
2023/03/24 12:50:20;;;;;;;20.20;3.33;;;14.10;99.90;;;;;;5024081;28;20056;-60
2023/03/24 12:52:50;;;;;;;19.63;3.00;;;14.10;99.90;;;;;;5005204;28;20421;-60
2023/03/24 12:55:41;;;;;;;15.60;2.78;;;14.30;99.90;;;;;;5015132;28;20050;-61
2023/03/24 12:58:45;;;;;;;11.25;3.47;;;14.30;99.90;;;;;;5018262;28;20041;-59
2023/03/24 13:01:25;;;;;;;19.85;2.78;;;14.00;99.90;;;;;;5020717;28;20396;-59
2023/03/24 13:04:25;;;;;;;18.13;2.70;;;14.00;99.90;;;;;;4998388;28;20053;-60
2023/03/24 13:06:59;;;;;;;14.32;2.42;;;14.10;99.90;;;;;;4999037;28;20081;-60
2023/03/24 13:09:39;;;;;;;15.13;2.63;;;14.00;99.90;;;;;;5023236;28;20107;-60
2023/03/24 13:12:30;;;;;;;16.77;3.83;;;14.00;99.90;;;;;;5014025;28;20568;-60